KAIG

Langlade County Airport

Antigo, Wisconsin, USA
METAR KAIG 200655Z AUTO 04008KT 10SM OVC006 M04/M05 A2981 RMK AO2 T10451046
Observed Flight Rules
Feb-20 @ 06:55 UTC (35 minutes ago) Instrument Flight Rules
Wind Visibility Clouds
40° at 8 knots 10 miles
  • Overcast at 600' AGL
Temperatures Readings
Current -5°C / 23°F
Dewpoint -5°C / 23°F
Humidity 100%
Altimeter 29.81" Hg
Pressure 1009 hPa
Elevation 464
METAR KAIG 200655Z AUTO 04008KT 10SM OVC006 M04/M05 A2981 RMK AO2 T10451046
Observed Flight Rules
Feb-20 @ 06:55 UTC
(35 minutes ago)
IFR
Wind Visibility
40° at 8 knots 10 miles
Clouds
  • Overcast at 600' AGL
Temperature Dewpoint
-5°C / 23°F -5°C / 23°F
Humidity Altimeter Pressure
100% 29.81" Hg 1009 hPa